Time;durP1;ratioP1;P1;durP2;ratioP2;P2;SDS_P1;SDS_P2;PMS_P1;PMS_P2;Temp;Humidity;BMP_temperature;BMP_pressure;BME280_temperature;BME280_humidity;BME280_pressure;Samples;Min_cycle;Max_cycle;Signal;HPM_P1;HPM_P2
2024/01/16 00:01:43;;;;;;;667.55;618.15;;;0.60;99.90;;;;;;5005983;28;20126;-81
2024/01/16 00:04:09;;;;;;;677.65;627.80;;;0.10;99.90;;;;;;5005189;28;20084;-81
2024/01/16 00:06:40;;;;;;;553.17;514.83;;;0.70;99.90;;;;;;5006045;28;20034;-80
2024/01/16 00:09:06;;;;;;;563.88;524.53;;;0.60;99.90;;;;;;4988818;28;20050;-81
2024/01/16 00:11:31;;;;;;;548.30;509.85;;;0.20;99.90;;;;;;5003281;28;20042;-80
2024/01/16 00:13:57;;;;;;;626.92;581.83;;;-0.10;99.90;;;;;;4993227;28;20485;-80
2024/01/16 00:16:23;;;;;;;630.00;584.22;;;1.00;99.90;;;;;;4993896;28;20144;-81
2024/01/16 00:18:48;;;;;;;675.72;625.10;;;-0.30;99.90;;;;;;5005997;28;20034;-81
2024/01/16 00:21:14;;;;;;;730.13;675.15;;;-0.30;99.90;;;;;;5006180;28;20495;-80
2024/01/16 00:23:40;;;;;;;692.50;639.75;;;0.20;99.90;;;;;;4988216;28;20045;-80
2024/01/16 00:26:05;;;;;;;684.83;634.45;;;0.30;99.90;;;;;;5004473;28;20111;-80
2024/01/16 00:28:32;;;;;;;667.22;618.35;;;-0.30;99.90;;;;;;5020442;28;20502;-80
2024/01/16 00:30:58;;;;;;;650.60;603.45;;;0.30;99.90;;;;;;5012808;28;20057;-80
2024/01/16 00:33:24;;;;;;;637.17;590.40;;;-0.30;99.90;;;;;;5009887;28;20050;-80
2024/01/16 00:35:49;;;;;;;625.63;579.97;;;0.30;99.90;;;;;;5006742;28;20057;-80
2024/01/16 00:38:15;;;;;;;552.25;514.05;;;-0.10;99.90;;;;;;5003032;28;20086;-80
2024/01/16 00:40:41;;;;;;;519.83;484.77;;;0.10;99.90;;;;;;5004157;28;20050;-80
2024/01/16 00:43:07;;;;;;;495.42;462.77;;;-0.30;99.90;;;;;;5005052;28;20042;-80
2024/01/16 00:45:32;;;;;;;479.30;447.42;;;0.50;99.90;;;;;;5005495;28;20520;-80
2024/01/16 00:47:58;;;;;;;513.90;479.38;;;1.00;99.90;;;;;;5019272;28;20087;-80
2024/01/16 00:50:24;;;;;;;463.83;432.95;;;0.90;99.90;;;;;;4979950;28;20129;-80
2024/01/16 00:52:50;;;;;;;503.13;469.92;;;0.00;99.90;;;;;;5003917;28;20050;-80
2024/01/16 00:55:16;;;;;;;489.98;457.63;;;0.60;99.90;;;;;;5004138;28;20077;-80
2024/01/16 00:57:41;;;;;;;543.03;504.88;;;-0.40;99.90;;;;;;5004874;28;20073;-80
2024/01/16 01:00:09;;;;;;;541.92;504.20;;;0.50;99.90;;;;;;5005495;28;20052;-80
2024/01/16 01:02:35;;;;;;;574.10;533.83;;;-0.40;99.90;;;;;;5004717;28;20175;-80
2024/01/16 01:05:01;;;;;;;734.40;677.30;;;-0.10;99.90;;;;;;5005300;28;20154;-80
2024/01/16 01:07:27;;;;;;;885.30;809.38;;;0.80;99.90;;;;;;5004375;28;20046;-80
2024/01/16 01:09:52;;;;;;;800.60;737.42;;;-0.10;99.90;;;;;;5004511;28;20758;-80
2024/01/16 01:12:18;;;;;;;863.22;792.22;;;-0.10;99.90;;;;;;5004105;28;20045;-80
2024/01/16 01:14:44;;;;;;;807.20;744.15;;;-0.10;99.90;;;;;;4994816;28;20150;-80
2024/01/16 01:17:09;;;;;;;803.85;740.95;;;0.30;99.90;;;;;;5005656;28;20050;-80
2024/01/16 01:19:35;;;;;;;774.42;715.72;;;-0.30;99.90;;;;;;5005569;28;20030;-80
2024/01/16 01:22:01;;;;;;;810.40;745.35;;;-0.20;99.90;;;;;;4996959;28;20474;-80
2024/01/16 01:24:26;;;;;;;785.22;725.10;;;0.60;99.90;;;;;;4966181;28;20054;-80
2024/01/16 01:26:52;;;;;;;803.78;740.40;;;-0.30;99.90;;;;;;4985555;28;20058;-79
2024/01/16 01:29:18;;;;;;;791.88;731.38;;;0.10;99.90;;;;;;4985737;28;20045;-79
2024/01/16 01:31:47;;;;;;;872.17;799.13;;;-0.10;99.90;;;;;;4999241;28;20038;-80
2024/01/16 01:34:13;;;;;;;842.65;775.05;;;0.20;99.90;;;;;;4985748;28;20064;-80
2024/01/16 01:36:39;;;;;;;902.65;823.97;;;0.60;99.90;;;;;;4988611;28;20042;-81
2024/01/16 01:39:05;;;;;;;841.80;773.72;;;-0.10;99.90;;;;;;5005358;28;20070;-80
2024/01/16 01:41:31;;;;;;;901.58;824.00;;;0.50;99.90;;;;;;5005318;28;20108;-80
2024/01/16 01:43:57;;;;;;;807.35;744.20;;;-0.10;99.90;;;;;;5004686;28;20507;-80
2024/01/16 01:46:23;;;;;;;862.58;790.97;;;0.00;99.90;;;;;;4987273;28;20054;-80
2024/01/16 01:48:50;;;;;;;826.42;760.70;;;0.60;99.90;;;;;;4983765;28;20534;-80
2024/01/16 01:51:19;;;;;;;843.55;774.28;;;-0.10;99.90;;;;;;4984949;28;20427;-79
2024/01/16 01:53:47;;;;;;;843.58;774.85;;;0.60;99.90;;;;;;4984636;28;20049;-80
2024/01/16 01:56:17;;;;;;;793.90;731.80;;;0.30;99.90;;;;;;4984066;28;20061;-80
2024/01/16 01:58:46;;;;;;;814.45;749.75;;;0.30;99.90;;;;;;4984180;28;20049;-80
2024/01/16 02:01:13;;;;;;;833.58;765.20;;;0.50;99.90;;;;;;4985684;28;20384;-80
2024/01/16 02:03:43;;;;;;;870.95;797.92;;;0.80;99.90;;;;;;5001559;28;20441;-80
2024/01/16 02:06:10;;;;;;;816.75;751.72;;;-0.30;99.90;;;;;;5004128;28;20052;-80
2024/01/16 02:08:36;;;;;;;803.60;739.72;;;-0.30;99.90;;;;;;5003788;28;20092;-79
2024/01/16 02:11:01;;;;;;;870.72;798.30;;;0.70;99.90;;;;;;4992297;28;20101;-80
2024/01/16 02:13:28;;;;;;;852.88;783.22;;;-0.40;99.90;;;;;;5024117;28;20137;-80
2024/01/16 02:15:54;;;;;;;846.53;779.53;;;0.50;99.90;;;;;;5010305;28;20073;-80
2024/01/16 02:18:20;;;;;;;801.25;738.35;;;-0.30;99.90;;;;;;4996893;28;20093;-80
2024/01/16 02:20:47;;;;;;;833.40;768.00;;;0.30;99.90;;;;;;4986974;28;20335;-80
2024/01/16 02:23:14;;;;;;;869.10;799.03;;;-0.30;99.90;;;;;;5002697;28;20076;-80
2024/01/16 02:25:42;;;;;;;889.67;817.10;;;0.00;99.90;;;;;;5002432;28;20178;-80
2024/01/16 02:28:07;;;;;;;873.83;801.72;;;-0.50;99.90;;;;;;5004872;28;20110;-80
2024/01/16 02:30:33;;;;;;;926.38;846.10;;;0.00;99.90;;;;;;5004046;28;20054;-80
2024/01/16 02:32:59;;;;;;;887.85;814.75;;;-0.20;99.90;;;;;;5002552;28;20403;-80
2024/01/16 02:35:25;;;;;;;893.80;820.30;;;0.00;99.90;;;;;;5003509;28;20079;-80
2024/01/16 02:37:51;;;;;;;890.53;817.88;;;-0.40;99.90;;;;;;4997553;28;20046;-80
2024/01/16 02:40:16;;;;;;;862.63;792.00;;;0.60;99.90;;;;;;4983656;28;20062;-80
2024/01/16 02:42:42;;;;;;;827.97;763.85;;;0.30;99.90;;;;;;4983947;28;20470;-80
2024/01/16 02:45:08;;;;;;;799.90;736.83;;;0.00;99.90;;;;;;4983655;28;20050;-80
2024/01/16 02:47:34;;;;;;;752.28;695.70;;;-0.40;99.90;;;;;;4984088;28;20050;-80
2024/01/16 02:50:00;;;;;;;731.22;676.40;;;0.50;99.90;;;;;;4984385;28;20058;-80
2024/01/16 02:52:26;;;;;;;763.72;705.15;;;0.60;99.90;;;;;;4990858;28;20042;-79
2024/01/16 02:54:51;;;;;;;713.25;659.60;;;0.70;99.90;;;;;;5002916;28;20471;-80
2024/01/16 02:57:17;;;;;;;775.10;716.05;;;-0.20;99.90;;;;;;5004184;28;20038;-80
2024/01/16 02:59:44;;;;;;;884.20;810.70;;;0.50;99.90;;;;;;4988924;28;20047;-80
2024/01/16 03:02:11;;;;;;;899.92;824.45;;;-0.70;99.90;;;;;;5016736;28;20050;-80
2024/01/16 03:04:37;;;;;;;843.58;775.15;;;0.00;99.90;;;;;;4983840;28;20058;-80
2024/01/16 03:07:03;;;;;;;892.10;817.28;;;-0.60;99.90;;;;;;4983721;28;20189;-80
2024/01/16 03:09:28;;;;;;;918.25;842.05;;;-0.80;99.90;;;;;;4983308;28;20061;-80
2024/01/16 03:11:54;;;;;;;879.03;806.80;;;0.50;99.90;;;;;;5016906;28;20107;-80
2024/01/16 03:14:20;;;;;;;875.70;802.28;;;-0.70;99.90;;;;;;4987558;28;20394;-80
2024/01/16 03:16:46;;;;;;;875.80;803.85;;;-0.90;99.90;;;;;;4987357;28;20405;-80
2024/01/16 03:19:12;;;;;;;884.83;813.22;;;0.20;99.90;;;;;;4989137;28;20053;-80
2024/01/16 03:21:38;;;;;;;881.05;809.95;;;-0.50;99.90;;;;;;4988005;28;20042;-80
2024/01/16 03:24:05;;;;;;;865.35;795.60;;;-0.90;99.90;;;;;;4998357;28;20057;-80
2024/01/16 03:26:32;;;;;;;852.60;783.75;;;-0.60;99.90;;;;;;4987292;28;20391;-80
2024/01/16 03:28:58;;;;;;;856.80;788.10;;;0.00;99.90;;;;;;4998806;28;20054;-80
2024/01/16 03:31:24;;;;;;;853.25;785.05;;;0.20;99.90;;;;;;5007432;28;20389;-80
2024/01/16 03:33:50;;;;;;;889.70;814.85;;;-0.30;99.90;;;;;;5005463;28;20049;-80
2024/01/16 03:36:16;;;;;;;871.40;800.85;;;-0.20;99.90;;;;;;5002432;28;20378;-80
2024/01/16 03:38:43;;;;;;;931.03;852.35;;;0.00;99.90;;;;;;5004654;28;20038;-80
2024/01/16 03:41:11;;;;;;;849.65;781.80;;;-0.40;99.90;;;;;;5006185;28;20050;-81
2024/01/16 03:43:36;;;;;;;902.40;825.97;;;-0.50;99.90;;;;;;5005641;28;20517;-80
2024/01/16 03:46:03;;;;;;;888.30;814.60;;;-0.20;99.90;;;;;;5039436;28;20542;-80
2024/01/16 03:48:28;;;;;;;925.33;844.00;;;-1.10;99.90;;;;;;4974787;28;20054;-80
2024/01/16 03:50:55;;;;;;;893.22;818.67;;;-0.70;99.90;;;;;;4987062;28;20046;-81
2024/01/16 03:53:22;;;;;;;859.70;790.45;;;-0.90;99.90;;;;;;4970148;28;20117;-80
2024/01/16 03:55:49;;;;;;;846.88;779.22;;;0.00;99.90;;;;;;4987366;28;20367;-81
2024/01/16 03:58:15;;;;;;;887.08;814.22;;;0.00;99.90;;;;;;4986660;28;20107;-80
2024/01/16 04:00:41;;;;;;;849.97;782.00;;;-0.70;99.90;;;;;;4986649;28;20053;-81
2024/01/16 04:03:07;;;;;;;855.58;786.00;;;-0.60;99.90;;;;;;4986039;28;20038;-81
2024/01/16 04:05:33;;;;;;;842.95;774.92;;;-0.20;99.90;;;;;;5026698;28;20083;-81
2024/01/16 04:07:59;;;;;;;891.65;815.67;;;0.40;99.90;;;;;;4991319;28;20074;-80
2024/01/16 04:10:25;;;;;;;825.28;759.90;;;-0.10;99.90;;;;;;4992814;28;20456;-81
2024/01/16 04:12:51;;;;;;;800.70;738.20;;;0.30;99.90;;;;;;4975925;28;20099;-81
2024/01/16 04:15:17;;;;;;;726.97;671.40;;;-0.40;99.90;;;;;;5005602;28;20118;-81
2024/01/16 04:17:42;;;;;;;744.58;684.58;;;-0.40;99.90;;;;;;4988419;28;20045;-80
2024/01/16 04:20:09;;;;;;;650.63;602.25;;;-0.40;99.90;;;;;;5038460;28;20481;-81
2024/01/16 04:22:35;;;;;;;608.05;563.55;;;-0.40;99.90;;;;;;5004512;28;20042;-81
2024/01/16 04:25:01;;;;;;;608.95;563.88;;;-0.40;99.90;;;;;;5003856;28;20053;-81
2024/01/16 04:27:27;;;;;;;610.30;565.72;;;-0.40;99.90;;;;;;5020892;28;20050;-81
2024/01/16 04:29:53;;;;;;;536.00;498.65;;;-0.30;99.90;;;;;;5007041;28;20141;-81
2024/01/16 04:32:19;;;;;;;535.95;498.35;;;0.70;99.90;;;;;;4990675;28;20460;-80
2024/01/16 04:34:45;;;;;;;608.25;563.28;;;-0.20;99.90;;;;;;4966735;28;20051;-81
2024/01/16 04:37:10;;;;;;;658.97;609.63;;;0.40;99.90;;;;;;4995078;28;20046;-82
2024/01/16 04:39:36;;;;;;;699.85;646.95;;;0.20;99.90;;;;;;4996660;28;20133;-81
2024/01/16 04:42:02;;;;;;;679.15;628.08;;;-0.20;99.90;;;;;;4970232;28;20046;-81
2024/01/16 04:44:28;;;;;;;722.42;665.33;;;-0.50;99.90;;;;;;4985110;28;20084;-81
2024/01/16 04:46:54;;;;;;;791.45;729.00;;;0.50;99.90;;;;;;4987074;28;20069;-81
2024/01/16 04:49:20;;;;;;;802.60;738.60;;;0.30;99.90;;;;;;5008887;28;20481;-81
2024/01/16 04:51:45;;;;;;;877.35;800.58;;;-0.40;99.90;;;;;;5003994;28;20089;-80
2024/01/16 04:54:12;;;;;;;795.22;733.08;;;0.00;99.90;;;;;;5004002;28;20374;-81
2024/01/16 04:56:38;;;;;;;726.97;671.90;;;1.00;99.90;;;;;;5004349;28;20038;-81
2024/01/16 04:59:03;;;;;;;765.17;703.85;;;1.10;99.90;;;;;;5006019;28;20048;-82
2024/01/16 05:01:29;;;;;;;685.58;633.22;;;0.80;99.90;;;;;;5036883;28;20485;-81
2024/01/16 05:03:55;;;;;;;683.13;632.40;;;0.30;99.90;;;;;;4998097;28;20042;-81
2024/01/16 05:06:21;;;;;;;701.92;647.88;;;0.40;99.90;;;;;;4966104;28;20394;-81
2024/01/16 05:08:47;;;;;;;784.97;723.60;;;0.50;99.90;;;;;;4984310;28;20038;-81
2024/01/16 05:11:13;;;;;;;696.92;645.25;;;0.60;99.90;;;;;;5000030;28;20053;-81
2024/01/16 05:13:38;;;;;;;684.15;633.45;;;0.60;99.90;;;;;;5004676;28;20466;-81
2024/01/16 05:16:05;;;;;;;694.95;643.08;;;0.50;99.90;;;;;;5004431;28;20485;-81
2024/01/16 05:18:32;;;;;;;692.95;641.28;;;-0.10;99.90;;;;;;5000682;28;20050;-81
2024/01/16 05:20:58;;;;;;;637.15;590.92;;;0.20;99.90;;;;;;5028356;28;20959;-81
2024/01/16 05:23:24;;;;;;;607.25;562.75;;;0.10;99.90;;;;;;4997970;28;20556;-81
2024/01/16 05:25:50;;;;;;;419.85;392.48;;;0.80;99.90;;;;;;5003619;28;20065;-81
2024/01/16 05:28:16;;;;;;;539.38;501.48;;;0.20;99.90;;;;;;4989575;28;20486;-81
2024/01/16 05:30:41;;;;;;;660.33;612.15;;;0.10;99.90;;;;;;5006074;28;20054;-81
2024/01/16 05:33:08;;;;;;;724.70;670.47;;;-0.30;99.90;;;;;;4986829;28;20053;-77
2024/01/16 05:35:34;;;;;;;719.47;665.60;;;0.10;99.90;;;;;;5002773;28;20054;-77
2024/01/16 05:38:00;;;;;;;762.65;703.25;;;-0.30;99.90;;;;;;5002510;28;20091;-77
2024/01/16 05:40:26;;;;;;;758.85;701.05;;;-0.30;99.90;;;;;;5005622;28;20038;-77
2024/01/16 05:42:52;;;;;;;885.63;810.40;;;0.40;99.90;;;;;;4986585;28;20049;-77
2024/01/16 05:45:17;;;;;;;788.05;726.42;;;0.40;99.90;;;;;;5003507;28;20042;-77
2024/01/16 05:47:43;;;;;;;730.58;675.88;;;-0.20;99.90;;;;;;4986448;28;20101;-77
2024/01/16 05:50:09;;;;;;;838.00;769.88;;;0.40;99.90;;;;;;4965187;28;20130;-77
2024/01/16 05:52:35;;;;;;;763.20;705.70;;;0.40;99.90;;;;;;4984246;28;20046;-77
2024/01/16 05:55:02;;;;;;;794.88;732.30;;;0.70;99.90;;;;;;4985015;28;20054;-77
2024/01/16 05:57:31;;;;;;;819.28;753.13;;;-0.30;99.90;;;;;;4987744;28;20054;-77
2024/01/16 05:59:57;;;;;;;806.72;743.42;;;0.40;99.90;;;;;;4990805;28;20043;-77
2024/01/16 06:02:23;;;;;;;740.42;684.72;;;-0.20;99.90;;;;;;5002798;28;20050;-78
2024/01/16 06:04:49;;;;;;;892.25;817.65;;;0.80;99.90;;;;;;4999318;28;20038;-77
2024/01/16 06:07:14;;;;;;;796.40;735.33;;;1.10;99.90;;;;;;4996375;28;20129;-77
2024/01/16 06:09:40;;;;;;;815.40;751.25;;;0.50;99.90;;;;;;4999110;28;20477;-77
2024/01/16 06:12:07;;;;;;;860.33;792.35;;;0.90;99.90;;;;;;4986480;28;20470;-77
2024/01/16 06:14:33;;;;;;;888.47;814.45;;;-0.30;99.90;;;;;;4974538;28;20101;-77
2024/01/16 06:16:59;;;;;;;836.03;771.25;;;0.60;99.90;;;;;;5004062;28;20073;-77
2024/01/16 06:19:24;;;;;;;791.38;730.97;;;0.50;99.90;;;;;;4988291;28;20042;-77
2024/01/16 06:21:50;;;;;;;901.58;827.95;;;0.40;99.90;;;;;;4985195;28;20133;-77
2024/01/16 06:24:16;;;;;;;875.28;805.10;;;0.10;99.90;;;;;;4983102;28;20070;-77
2024/01/16 06:26:43;;;;;;;852.38;785.03;;;0.40;99.90;;;;;;4984195;28;20050;-77
2024/01/16 06:29:09;;;;;;;899.08;822.83;;;0.90;99.90;;;;;;4986171;28;20042;-77
2024/01/16 06:31:34;;;;;;;860.58;791.85;;;0.50;99.90;;;;;;4985083;28;20387;-77
2024/01/16 06:34:00;;;;;;;911.55;836.83;;;-0.10;99.90;;;;;;4985454;28;20455;-77
2024/01/16 06:36:26;;;;;;;847.65;780.33;;;0.10;99.90;;;;;;4985626;28;20102;-78
2024/01/16 06:38:52;;;;;;;876.08;804.45;;;0.40;99.90;;;;;;4985210;28;20046;-77
2024/01/16 06:41:18;;;;;;;853.58;784.85;;;0.10;99.90;;;;;;5003470;28;20483;-77
2024/01/16 06:43:44;;;;;;;856.97;787.80;;;0.20;99.90;;;;;;4992549;28;20043;-77
2024/01/16 06:46:09;;;;;;;836.53;770.40;;;0.00;99.90;;;;;;5001547;28;20041;-77
2024/01/16 06:48:38;;;;;;;874.92;803.90;;;0.00;99.90;;;;;;4989541;28;20045;-76
2024/01/16 06:51:04;;;;;;;797.63;736.17;;;0.10;99.90;;;;;;4985959;28;20059;-77
2024/01/16 06:53:30;;;;;;;822.55;757.70;;;-0.40;99.90;;;;;;4982134;28;20086;-77
2024/01/16 06:55:56;;;;;;;754.17;697.03;;;-0.10;99.90;;;;;;4984244;28;20082;-77
2024/01/16 06:58:22;;;;;;;802.85;741.05;;;0.60;99.90;;;;;;4974099;28;20104;-78
2024/01/16 07:00:47;;;;;;;858.33;788.90;;;0.80;99.90;;;;;;4988163;28;20038;-77
2024/01/16 07:03:13;;;;;;;822.80;758.40;;;0.00;99.90;;;;;;4994990;28;20451;-77
2024/01/16 07:05:40;;;;;;;790.70;729.65;;;-0.50;99.90;;;;;;4997051;28;20038;-77
2024/01/16 07:08:07;;;;;;;795.30;733.80;;;-0.20;99.90;;;;;;4985109;28;20057;-77
2024/01/16 07:10:33;;;;;;;817.97;753.08;;;-0.60;99.90;;;;;;5014860;28;20170;-77
2024/01/16 07:12:59;;;;;;;831.40;765.83;;;-0.70;99.90;;;;;;4988716;28;20123;-77
2024/01/16 07:15:25;;;;;;;879.10;808.08;;;0.00;99.90;;;;;;4990551;28;20436;-77
2024/01/16 07:17:51;;;;;;;905.38;830.95;;;-0.20;99.90;;;;;;4978689;28;20054;-77
2024/01/16 07:20:17;;;;;;;869.42;799.20;;;0.40;99.90;;;;;;4989919;28;20043;-77
2024/01/16 07:22:43;;;;;;;841.83;775.13;;;0.50;99.90;;;;;;4992168;28;20054;-77
2024/01/16 07:25:09;;;;;;;819.50;756.83;;;0.00;99.90;;;;;;4997004;28;20061;-77
2024/01/16 07:27:35;;;;;;;789.33;728.95;;;-0.10;99.90;;;;;;4992704;28;20471;-77
2024/01/16 07:30:04;;;;;;;915.53;838.55;;;-0.20;99.90;;;;;;4997483;28;20165;-77
2024/01/16 07:32:30;;;;;;;872.40;801.20;;;-0.70;99.90;;;;;;5000730;28;20508;-78
2024/01/16 07:34:56;;;;;;;869.50;799.65;;;0.30;99.90;;;;;;5021649;28;20114;-77
2024/01/16 07:37:21;;;;;;;865.35;795.47;;;-0.70;99.90;;;;;;4983746;28;20110;-77
2024/01/16 07:39:47;;;;;;;920.38;845.17;;;0.50;99.90;;;;;;4971121;28;20042;-78
2024/01/16 07:42:13;;;;;;;911.50;836.13;;;-0.60;99.90;;;;;;4984908;28;20135;-77
2024/01/16 07:44:39;;;;;;;932.10;852.83;;;-0.60;99.90;;;;;;4983952;28;20188;-77
2024/01/16 07:47:05;;;;;;;885.30;813.30;;;0.10;99.90;;;;;;5026536;28;20774;-78
2024/01/16 07:49:30;;;;;;;918.25;841.28;;;-0.60;99.90;;;;;;5001134;28;20053;-78
2024/01/16 07:51:56;;;;;;;918.00;841.33;;;-0.40;99.90;;;;;;5002824;28;20050;-78
2024/01/16 07:54:22;;;;;;;923.15;846.60;;;-0.60;99.90;;;;;;4993051;28;20042;-78
2024/01/16 07:56:48;;;;;;;941.60;860.90;;;-0.40;99.90;;;;;;4989801;28;20143;-78
2024/01/16 07:59:14;;;;;;;938.28;857.30;;;-0.40;99.90;;;;;;5005137;28;20038;-77
2024/01/16 08:01:39;;;;;;;898.85;825.30;;;-0.60;99.90;;;;;;4985337;28;20462;-78
2024/01/16 08:04:05;;;;;;;889.53;817.30;;;0.00;99.90;;;;;;4998437;28;20057;-77
2024/01/16 08:06:31;;;;;;;830.63;766.45;;;-0.50;99.90;;;;;;5028758;28;20041;-78
2024/01/16 08:08:57;;;;;;;900.13;826.83;;;-0.10;99.90;;;;;;4980149;28;20057;-78
2024/01/16 08:11:23;;;;;;;893.78;821.15;;;0.00;99.90;;;;;;4995277;28;20489;-77
2024/01/16 08:13:49;;;;;;;854.45;787.22;;;-0.40;99.90;;;;;;5003537;28;20113;-77
2024/01/16 08:16:15;;;;;;;836.53;770.58;;;0.40;99.90;;;;;;4991013;28;20497;-78
2024/01/16 08:18:41;;;;;;;894.22;821.60;;;0.90;99.90;;;;;;4998282;28;20058;-78
2024/01/16 08:21:07;;;;;;;826.13;761.40;;;0.80;99.90;;;;;;5032443;28;20389;-78
2024/01/16 08:23:34;;;;;;;777.42;718.65;;;1.20;99.90;;;;;;5002992;28;20438;-78
2024/01/16 08:26:00;;;;;;;767.15;709.65;;;0.40;99.90;;;;;;4982286;28;20103;-78
2024/01/16 08:28:27;;;;;;;634.80;588.63;;;0.70;99.90;;;;;;4998954;28;20344;-77
2024/01/16 08:30:52;;;;;;;605.90;562.67;;;0.60;99.90;;;;;;5001506;28;20078;-78
2024/01/16 08:33:18;;;;;;;511.33;476.48;;;0.30;99.90;;;;;;4999646;28;20485;-78
2024/01/16 08:35:44;;;;;;;625.47;579.92;;;0.90;99.90;;;;;;4994600;28;20121;-77
2024/01/16 08:38:10;;;;;;;746.05;690.28;;;0.00;99.90;;;;;;5001578;28;20455;-77
2024/01/16 08:40:35;;;;;;;503.75;470.73;;;0.90;99.90;;;;;;5000595;28;20045;-78
2024/01/16 08:43:01;;;;;;;770.08;709.80;;;1.00;99.90;;;;;;5004524;28;20060;-77
2024/01/16 08:45:27;;;;;;;671.53;622.67;;;0.10;99.90;;;;;;4990207;28;20552;-78
2024/01/16 08:47:52;;;;;;;558.13;519.45;;;0.60;99.90;;;;;;4993894;28;20051;-77
2024/01/16 08:50:18;;;;;;;532.67;496.20;;;0.20;99.90;;;;;;4985384;28;20047;-77
2024/01/16 08:52:44;;;;;;;556.80;518.22;;;1.20;99.90;;;;;;4970310;28;20047;-77
2024/01/16 08:55:10;;;;;;;531.53;495.83;;;0.50;99.90;;;;;;4975398;28;20063;-77
2024/01/16 08:57:37;;;;;;;544.53;507.00;;;1.30;99.90;;;;;;4974724;28;20138;-77
2024/01/16 09:00:05;;;;;;;641.67;595.70;;;1.40;99.90;;;;;;5028404;28;20058;-77
2024/01/16 09:02:31;;;;;;;583.70;542.30;;;0.50;99.90;;;;;;5000232;28;20454;-77
2024/01/16 09:04:58;;;;;;;608.00;564.97;;;0.60;99.90;;;;;;4997072;28;20042;-77
2024/01/16 09:07:26;;;;;;;645.20;597.00;;;1.20;99.90;;;;;;5005865;28;20125;-77
2024/01/16 09:09:51;;;;;;;572.70;532.15;;;0.80;99.90;;;;;;4990986;28;20046;-77
2024/01/16 09:12:17;;;;;;;685.33;633.08;;;1.60;99.90;;;;;;4985517;28;20129;-77
2024/01/16 09:14:43;;;;;;;645.25;597.05;;;2.10;99.90;;;;;;4987008;28;20402;-77
2024/01/16 09:17:09;;;;;;;536.95;500.85;;;1.20;99.90;;;;;;4990875;28;20518;-77
2024/01/16 09:19:35;;;;;;;657.42;609.00;;;1.50;99.90;;;;;;5005160;28;20122;-77
2024/01/16 09:22:00;;;;;;;616.03;571.83;;;1.40;99.90;;;;;;5004414;28;20050;-77
2024/01/16 09:24:26;;;;;;;532.13;496.63;;;1.30;99.90;;;;;;5003029;28;20057;-77
2024/01/16 09:26:52;;;;;;;599.88;557.03;;;1.30;99.90;;;;;;5016864;28;20121;-77
2024/01/16 09:29:17;;;;;;;811.97;746.90;;;1.30;99.90;;;;;;4985813;28;20050;-78
2024/01/16 09:31:43;;;;;;;720.83;664.97;;;0.80;99.90;;;;;;4984252;28;20050;-77
2024/01/16 09:34:09;;;;;;;700.15;645.90;;;0.80;99.90;;;;;;4984055;28;20142;-78
2024/01/16 09:36:36;;;;;;;741.05;683.20;;;1.70;99.90;;;;;;4983750;28;20089;-77
2024/01/16 09:39:07;;;;;;;633.38;588.33;;;1.10;99.90;;;;;;4983873;28;20137;-77
2024/01/16 09:41:34;;;;;;;651.85;604.63;;;0.80;99.90;;;;;;4984974;28;20057;-77
2024/01/16 09:44:00;;;;;;;582.42;541.65;;;1.80;99.90;;;;;;4969983;28;20065;-77
2024/01/16 09:46:26;;;;;;;628.60;583.17;;;1.30;99.90;;;;;;4975530;28;20492;-77
2024/01/16 09:48:55;;;;;;;681.55;631.15;;;1.20;99.90;;;;;;4969410;28;20116;-77
2024/01/16 09:51:20;;;;;;;634.47;588.63;;;1.30;99.90;;;;;;4965178;28;20042;-77
2024/01/16 09:53:46;;;;;;;589.55;548.35;;;0.90;99.90;;;;;;4964266;28;20124;-77
2024/01/16 09:56:15;;;;;;;565.67;526.85;;;1.50;99.90;;;;;;4965795;28;20039;-77
2024/01/16 09:58:43;;;;;;;545.40;507.98;;;1.90;99.90;;;;;;4966168;28;20130;-77
2024/01/16 10:01:10;;;;;;;524.70;489.35;;;1.00;99.90;;;;;;4976554;28;20043;-77
2024/01/16 10:03:35;;;;;;;550.28;512.65;;;1.60;99.90;;;;;;4985126;28;20412;-77
2024/01/16 10:06:05;;;;;;;518.13;483.73;;;1.80;99.90;;;;;;4984548;28;20513;-77
2024/01/16 10:08:31;;;;;;;527.72;491.90;;;1.10;99.90;;;;;;4982522;28;20046;-78
2024/01/16 10:10:58;;;;;;;528.47;493.00;;;1.10;99.90;;;;;;4984254;28;20373;-77
2024/01/16 10:13:24;;;;;;;511.80;477.08;;;1.70;99.90;;;;;;4982798;28;20047;-77
2024/01/16 10:15:52;;;;;;;468.23;437.92;;;1.60;99.90;;;;;;4984570;28;20049;-76
2024/01/16 10:18:30;;;;;;;458.92;429.08;;;1.90;99.90;;;;;;4984561;28;20103;-77
2024/01/16 10:20:56;;;;;;;492.05;458.92;;;1.40;99.90;;;;;;4983293;28;20062;-76
2024/01/16 10:23:24;;;;;;;498.80;466.20;;;1.70;99.90;;;;;;4981552;28;20078;-76
2024/01/16 10:26:10;;;;;;;450.15;420.42;;;1.50;99.90;;;;;;4993546;28;20060;-77
2024/01/16 10:28:38;;;;;;;419.13;392.92;;;1.70;99.90;;;;;;5002983;28;20058;-77
2024/01/16 10:31:06;;;;;;;474.42;443.42;;;1.90;99.90;;;;;;5003120;28;20053;-77
2024/01/16 10:33:32;;;;;;;431.65;404.48;;;1.30;99.90;;;;;;5002727;28;20054;-77
2024/01/16 10:36:13;;;;;;;443.25;415.40;;;2.00;99.90;;;;;;5003624;28;20050;-77
2024/01/16 10:38:41;;;;;;;449.55;420.35;;;1.30;99.90;;;;;;5002025;28;20058;-76
2024/01/16 10:41:10;;;;;;;427.95;401.08;;;1.50;99.90;;;;;;5003569;28;20054;-77
2024/01/16 10:43:37;;;;;;;499.77;466.55;;;1.30;99.90;;;;;;5022642;28;20056;-77
2024/01/16 10:46:17;;;;;;;459.48;429.58;;;1.30;99.90;;;;;;5002666;28;20476;-77
2024/01/16 10:48:44;;;;;;;508.38;474.83;;;1.20;99.90;;;;;;4989656;28;20107;-77
2024/01/16 10:51:13;;;;;;;541.28;503.83;;;1.20;99.90;;;;;;4985188;28;20057;-77
2024/01/16 10:53:43;;;;;;;556.05;518.45;;;1.20;99.90;;;;;;4983087;28;20107;-77
2024/01/16 10:56:12;;;;;;;550.63;513.08;;;1.30;99.90;;;;;;4984013;28;20058;-77
2024/01/16 10:58:41;;;;;;;543.75;506.98;;;1.20;99.90;;;;;;4995435;28;20050;-76
2024/01/16 11:01:10;;;;;;;558.28;519.78;;;1.30;99.90;;;;;;4985773;28;20497;-77
2024/01/16 11:03:48;;;;;;;564.50;525.00;;;1.40;99.90;;;;;;4996640;28;20502;-77
2024/01/16 11:06:16;;;;;;;509.30;474.95;;;1.40;99.90;;;;;;4983156;28;20054;-77
2024/01/16 11:08:42;;;;;;;503.92;471.20;;;1.50;99.90;;;;;;4984665;28;20103;-76
2024/01/16 11:11:09;;;;;;;479.20;448.20;;;1.50;99.90;;;;;;4985319;28;20053;-77
2024/01/16 11:13:36;;;;;;;503.95;469.75;;;1.60;99.90;;;;;;5016033;28;20054;-77
2024/01/16 11:16:04;;;;;;;459.65;430.05;;;1.70;99.90;;;;;;4984744;28;20047;-77
2024/01/16 11:18:32;;;;;;;442.23;414.23;;;1.70;99.90;;;;;;4970651;28;20050;-77
2024/01/16 11:20:58;;;;;;;469.25;439.45;;;1.70;99.90;;;;;;4984794;28;20046;-77
2024/01/16 11:23:24;;;;;;;403.27;378.35;;;1.70;99.90;;;;;;4998252;28;20046;-77
2024/01/16 11:25:50;;;;;;;473.65;442.75;;;1.70;99.90;;;;;;4983150;28;20133;-77
2024/01/16 11:28:16;;;;;;;378.83;354.73;;;1.70;99.90;;;;;;4982972;28;20196;-77
2024/01/16 11:30:43;;;;;;;447.25;418.48;;;1.80;99.90;;;;;;4974527;28;20531;-77
2024/01/16 11:33:47;;;;;;;402.10;377.02;;;1.80;99.90;;;;;;4983606;28;20075;-77
2024/01/16 11:36:47;;;;;;;396.63;371.80;;;1.80;99.90;;;;;;4989069;28;20049;-77
2024/01/16 11:39:19;;;;;;;360.50;338.50;;;1.90;99.90;;;;;;4970202;28;20051;-78
2024/01/16 11:41:52;;;;;;;362.27;339.67;;;1.90;99.90;;;;;;4979245;28;20112;-77
2024/01/16 11:44:45;;;;;;;333.58;313.10;;;1.90;99.90;;;;;;4990917;28;20117;-77
2024/01/16 11:47:17;;;;;;;310.63;292.42;;;2.00;99.90;;;;;;4990936;28;20447;-77
2024/01/16 11:49:42;;;;;;;379.88;356.15;;;2.00;99.90;;;;;;4997915;28;20850;-77
2024/01/16 11:52:11;;;;;;;269.92;253.90;;;2.00;99.90;;;;;;5004488;28;20049;-77
2024/01/16 11:54:36;;;;;;;288.80;272.02;;;2.00;99.90;;;;;;5003384;28;20050;-77
2024/01/16 11:57:25;;;;;;;292.80;275.50;;;2.00;99.90;;;;;;4984729;28;20060;-77
2024/01/16 12:00:01;;;;;;;263.70;248.68;;;2.00;99.90;;;;;;5003809;28;20053;-77
2024/01/16 12:02:37;;;;;;;326.73;306.77;;;1.90;99.90;;;;;;4968568;28;20078;-77
2024/01/16 12:05:06;;;;;;;270.35;253.77;;;1.90;99.90;;;;;;4991461;28;20114;-77
2024/01/16 12:07:43;;;;;;;307.33;288.63;;;1.90;99.90;;;;;;4987166;28;20038;-77
2024/01/16 12:10:09;;;;;;;283.50;266.92;;;1.80;99.90;;;;;;4987609;28;20046;-77
2024/01/16 12:12:35;;;;;;;347.50;325.58;;;1.70;99.90;;;;;;4991099;28;20089;-77